Time;durP1;ratioP1;P1;durP2;ratioP2;P2;SDS_P1;SDS_P2;PMS_P1;PMS_P2;Temp;Humidity;BMP_temperature;BMP_pressure;BME280_temperature;BME280_humidity;BME280_pressure;Samples;Min_cycle;Max_cycle;Signal;HPM_P1;HPM_P2
2021/10/22 00:01:51;;;;;;;8.87;1.53;;;;;;;9.64;nan;99637.97;5051597;28;20215;-74
2021/10/22 00:04:16;;;;;;;6.43;1.30;;;;;;;9.78;nan;99638.84;5052947;28;20175;-73
2021/10/22 00:06:42;;;;;;;4.10;1.00;;;;;;;9.67;nan;99650.25;5051661;28;20164;-72
2021/10/22 00:09:07;;;;;;;8.87;1.30;;;;;;;9.58;nan;99664.16;5052871;28;20241;-72
2021/10/22 00:11:34;;;;;;;6.13;1.40;;;;;;;9.64;nan;99640.63;5051412;28;20192;-71
2021/10/22 00:13:59;;;;;;;7.53;1.53;;;;;;;9.66;nan;99657.41;5051351;28;20183;-72
2021/10/22 00:16:25;;;;;;;6.17;1.33;;;;;;;9.39;nan;99684.06;5052748;28;20206;-72
2021/10/22 00:18:50;;;;;;;5.33;1.13;;;;;;;9.41;nan;99665.31;5052774;28;20183;-72
2021/10/22 00:21:15;;;;;;;7.57;2.00;;;;;;;9.49;nan;99646.16;5034552;28;20212;-71
2021/10/22 00:23:41;;;;;;;6.73;1.20;;;;;;;9.57;nan;99655.31;5052904;28;20553;-72
2021/10/22 00:26:06;;;;;;;5.37;1.20;;;;;;;9.52;nan;99668.09;5056441;28;20178;-71
2021/10/22 00:28:31;;;;;;;8.93;1.63;;;;;;;9.69;nan;99665.19;5055340;28;20182;-71
2021/10/22 00:30:56;;;;;;;3.93;1.20;;;;;;;9.78;nan;99690.34;5056134;28;20577;-72
2021/10/22 00:33:22;;;;;;;4.50;1.17;;;;;;;9.61;nan;99680.78;5056313;28;20184;-73
2021/10/22 00:35:48;;;;;;;6.30;1.20;;;;;;;9.81;nan;99673.28;5056511;28;20199;-72
2021/10/22 00:38:13;;;;;;;6.67;1.73;;;;;;;9.62;nan;99689.63;5054982;28;20604;-72
2021/10/22 00:40:38;;;;;;;7.83;1.47;;;;;;;9.88;nan;99678.09;5039040;28;20202;-73
2021/10/22 00:43:04;;;;;;;5.03;1.20;;;;;;;9.46;nan;99660.53;5056286;28;20160;-72
2021/10/22 00:45:29;;;;;;;5.13;1.43;;;;;;;9.53;nan;99667.16;5054861;28;20218;-72
2021/10/22 00:47:54;;;;;;;6.10;1.07;;;;;;;9.67;nan;99667.09;5055972;28;20214;-73
2021/10/22 00:50:20;;;;;;;7.47;1.27;;;;;;;9.67;nan;99676.91;5038080;28;20206;-71
2021/10/22 00:52:46;;;;;;;8.30;1.60;;;;;;;9.81;nan;99684.78;5055754;28;20218;-71
2021/10/22 00:55:12;;;;;;;5.27;1.20;;;;;;;9.66;nan;99653.84;5054648;28;20669;-73
2021/10/22 00:57:39;;;;;;;5.20;1.30;;;;;;;9.89;nan;99694.94;5055805;28;20179;-73
2021/10/22 01:00:05;;;;;;;9.93;1.90;;;;;;;9.85;nan;99682.78;5054590;28;20202;-72
2021/10/22 01:02:30;;;;;;;6.87;1.60;;;;;;;9.49;nan;99659.47;5054467;28;20200;-73
2021/10/22 01:04:55;;;;;;;7.17;1.77;;;;;;;9.98;nan;99692.47;5055647;28;20179;-73
2021/10/22 01:07:21;;;;;;;7.10;1.20;;;;;;;9.57;nan;99676.63;5055803;28;20172;-73
2021/10/22 01:09:46;;;;;;;10.87;1.77;;;;;;;9.63;nan;99692.19;5054357;28;20184;-73
2021/10/22 01:12:12;;;;;;;8.23;1.40;;;;;;;9.86;nan;99708.47;5055847;28;20210;-73
2021/10/22 01:14:38;;;;;;;11.90;2.77;;;;;;;9.71;nan;99695.22;5054445;28;20163;-73
2021/10/22 01:17:03;;;;;;;9.63;1.60;;;;;;;9.71;nan;99687.25;5037879;28;20175;-72
2021/10/22 01:19:29;;;;;;;7.97;2.00;;;;;;;9.83;nan;99664.22;5055898;28;20175;-73
2021/10/22 01:21:54;;;;;;;10.97;1.40;;;;;;;9.71;nan;99700.56;5037511;28;20194;-73
2021/10/22 01:24:20;;;;;;;8.47;2.03;;;;;;;9.85;nan;99704.09;5054314;28;20172;-73
2021/10/22 01:26:46;;;;;;;5.10;1.50;;;;;;;9.86;nan;99703.13;5054108;28;20176;-73
2021/10/22 01:29:11;;;;;;;5.93;1.27;;;;;;;9.86;nan;99703.13;5054974;28;20203;-72
2021/10/22 01:31:37;;;;;;;7.43;1.37;;;;;;;9.70;nan;99698.84;5054355;28;20242;-73
2021/10/22 01:34:03;;;;;;;3.53;1.10;;;;;;;9.94;nan;99722.13;5054850;28;20256;-73
2021/10/22 01:36:29;;;;;;;7.00;1.80;;;;;;;9.93;nan;99705.28;5053223;28;20199;-73
2021/10/22 01:38:55;;;;;;;9.97;2.03;;;;;;;9.92;nan;99698.25;5037498;28;20229;-73
2021/10/22 01:41:21;;;;;;;5.20;1.43;;;;;;;9.79;nan;99707.19;5054930;28;20195;-72
2021/10/22 01:43:48;;;;;;;7.10;1.97;;;;;;;10.07;nan;99709.69;5054095;28;20171;-72
2021/10/22 01:46:14;;;;;;;5.83;1.50;;;;;;;10.00;nan;99721.69;5053915;28;20172;-73
2021/10/22 01:48:40;;;;;;;4.97;1.63;;;;;;;10.28;nan;99710.03;5055188;28;20664;-73
2021/10/22 01:51:05;;;;;;;7.30;1.77;;;;;;;9.95;nan;99695.38;5053836;28;20199;-73
2021/10/22 01:53:31;;;;;;;11.57;2.40;;;;;;;10.10;nan;99712.13;5053558;28;20642;-73
2021/10/22 01:55:56;;;;;;;7.83;1.80;;;;;;;9.78;nan;99695.66;5055096;28;20183;-73
2021/10/22 01:58:22;;;;;;;7.77;1.73;;;;;;;9.90;nan;99715.28;5036832;28;20257;-72
2021/10/22 02:00:47;;;;;;;12.77;2.00;;;;;;;10.22;nan;99724.66;5053502;28;20216;-73
2021/10/22 02:03:13;;;;;;;6.93;2.10;;;;;;;10.02;nan;99711.78;5053471;28;20253;-73
2021/10/22 02:05:38;;;;;;;8.17;1.33;;;;;;;10.03;nan;99717.03;5053182;28;20296;-73
2021/10/22 02:08:04;;;;;;;8.83;1.50;;;;;;;10.08;nan;99724.72;5053198;28;20183;-73
2021/10/22 02:10:29;;;;;;;9.63;1.90;;;;;;;10.11;nan;99737.84;5036441;28;20235;-73
2021/10/22 02:12:54;;;;;;;9.40;2.00;;;;;;;9.92;nan;99719.56;5053090;28;20545;-73
2021/10/22 02:15:20;;;;;;;8.23;2.00;;;;;;;10.08;nan;99700.72;5053694;28;20221;-73
2021/10/22 02:17:45;;;;;;;14.50;2.37;;;;;;;10.07;nan;99714.16;5054625;28;20628;-74
2021/10/22 02:20:11;;;;;;;10.00;2.27;;;;;;;9.97;nan;99727.25;5037241;28;20179;-74
2021/10/22 02:22:36;;;;;;;11.77;2.20;;;;;;;10.25;nan;99726.25;5054168;28;20664;-73
2021/10/22 02:25:03;;;;;;;9.33;2.40;;;;;;;10.18;nan;99728.47;5054123;28;20180;-72
2021/10/22 02:27:28;;;;;;;12.70;1.97;;;;;;;10.28;nan;99732.22;5036706;28;20178;-72
2021/10/22 02:29:54;;;;;;;12.53;1.87;;;;;;;10.18;nan;99741.78;5054118;28;20167;-71
2021/10/22 02:32:19;;;;;;;9.40;1.70;;;;;;;10.21;nan;99720.28;5053979;28;20213;-72
2021/10/22 02:34:44;;;;;;;10.87;2.20;;;;;;;10.30;nan;99706.31;5054188;28;20171;-73
2021/10/22 02:37:09;;;;;;;10.77;2.07;;;;;;;10.19;nan;99707.97;5055093;28;20172;-72
2021/10/22 02:39:36;;;;;;;9.70;1.70;;;;;;;10.35;nan;99711.31;5053527;28;20172;-74
2021/10/22 02:42:01;;;;;;;7.80;1.57;;;;;;;10.32;nan;99730.19;5052935;28;20230;-73
2021/10/22 02:44:27;;;;;;;10.50;2.10;;;;;;;10.54;nan;99710.88;5054484;28;20194;-72
2021/10/22 02:46:52;;;;;;;10.47;1.70;;;;;;;10.46;nan;99719.44;5053032;28;20180;-72
2021/10/22 02:49:17;;;;;;;6.87;1.37;;;;;;;10.54;nan;99719.75;5053024;28;20171;-72
2021/10/22 02:51:42;;;;;;;8.33;1.53;;;;;;;10.49;nan;99724.56;5053713;28;20203;-71
2021/10/22 02:54:08;;;;;;;9.20;1.77;;;;;;;10.50;nan;99730.75;5054279;28;20213;-72
2021/10/22 02:56:33;;;;;;;7.60;2.10;;;;;;;10.29;nan;99707.25;5052458;28;20483;-72
2021/10/22 02:58:58;;;;;;;10.17;1.70;;;;;;;10.36;nan;99738.84;5053516;28;20171;-72
2021/10/22 03:01:24;;;;;;;9.70;1.47;;;;;;;10.26;nan;99728.81;5054145;28;20196;-73
2021/10/22 03:03:49;;;;;;;10.10;2.13;;;;;;;10.35;nan;99724.66;5052707;28;20538;-72
2021/10/22 03:06:14;;;;;;;10.57;2.20;;;;;;;10.42;nan;99725.09;5053290;28;20176;-73
2021/10/22 03:08:40;;;;;;;7.93;1.60;;;;;;;10.30;nan;99730.31;5038146;28;20186;-72
2021/10/22 03:11:05;;;;;;;4.90;1.43;;;;;;;10.49;nan;99721.03;5054304;28;20207;-72
2021/10/22 03:13:30;;;;;;;6.20;1.57;;;;;;;10.53;nan;99733.19;5052956;28;20186;-73
2021/10/22 03:15:56;;;;;;;6.47;1.40;;;;;;;10.62;nan;99730.72;5051965;28;20176;-73
2021/10/22 03:18:21;;;;;;;5.77;1.60;;;;;;;10.61;nan;99725.50;5053533;28;20225;-71
2021/10/22 03:20:47;;;;;;;11.40;2.37;;;;;;;10.52;nan;99728.81;5053532;28;20187;-72
2021/10/22 03:23:12;;;;;;;6.07;1.67;;;;;;;10.77;nan;99707.44;5035199;28;20175;-72
2021/10/22 03:25:37;;;;;;;8.87;1.97;;;;;;;10.03;nan;99711.72;5053127;28;20175;-72
2021/10/22 03:28:05;;;;;;;7.13;2.10;;;;;;;10.31;nan;99702.66;5035029;28;20673;-72
2021/10/22 03:30:35;;;;;;;8.30;1.53;;;;;;;10.53;nan;99726.03;5035285;28;20199;-73
2021/10/22 03:33:01;;;;;;;8.33;1.60;;;;;;;10.79;nan;99729.56;5052958;28;20174;-72
2021/10/22 03:35:26;;;;;;;8.13;2.17;;;;;;;10.47;nan;99725.63;5051667;28;20553;-72
2021/10/22 03:37:52;;;;;;;5.77;2.10;;;;;;;10.71;nan;99718.53;5053069;28;20172;-72
2021/10/22 03:40:18;;;;;;;8.27;1.73;;;;;;;10.27;nan;99697.66;5051513;28;20167;-73
2021/10/22 03:42:43;;;;;;;10.57;1.90;;;;;;;10.41;nan;99728.72;5051511;28;20206;-73
2021/10/22 03:45:09;;;;;;;8.10;1.70;;;;;;;10.44;nan;99699.16;5054408;28;20209;-73
2021/10/22 03:47:34;;;;;;;7.23;1.30;;;;;;;10.37;nan;99711.19;5052221;28;20171;-74
2021/10/22 03:49:59;;;;;;;6.87;1.50;;;;;;;10.40;nan;99689.66;5051637;28;20171;-73
2021/10/22 03:52:25;;;;;;;14.60;2.20;;;;;;;10.58;nan;99701.72;5053112;28;20561;-73
2021/10/22 03:54:51;;;;;;;10.50;2.17;;;;;;;10.29;nan;99741.94;5051781;28;20252;-72
2021/10/22 03:57:16;;;;;;;10.40;1.83;;;;;;;10.29;nan;99709.06;5035113;28;20214;-74
2021/10/22 03:59:41;;;;;;;7.90;1.47;;;;;;;10.37;nan;99719.22;5056429;28;20518;-73
2021/10/22 04:02:06;;;;;;;7.23;1.77;;;;;;;10.32;nan;99735.53;5056307;28;20557;-72
2021/10/22 04:04:32;;;;;;;7.17;1.50;;;;;;;10.24;nan;99700.53;5057068;28;20179;-73
2021/10/22 04:06:57;;;;;;;9.83;1.90;;;;;;;10.46;nan;99703.44;5039563;28;20199;-75
2021/10/22 04:09:26;;;;;;;5.03;1.53;;;;;;;10.61;nan;99705.00;5055679;28;20183;-74
2021/10/22 04:11:52;;;;;;;8.50;1.70;;;;;;;10.08;nan;99703.41;5055744;28;20199;-73
2021/10/22 04:14:17;;;;;;;7.10;1.77;;;;;;;10.52;nan;99704.81;5057083;28;20176;-74
2021/10/22 04:16:42;;;;;;;8.57;1.50;;;;;;;10.50;nan;99694.25;5055851;28;20171;-73
2021/10/22 04:19:08;;;;;;;7.43;1.70;;;;;;;10.27;nan;99725.19;5056823;28;20179;-73
2021/10/22 04:21:33;;;;;;;7.20;1.77;;;;;;;10.21;nan;99676.75;5057400;28;20611;-72
2021/10/22 04:23:58;;;;;;;6.37;2.03;;;;;;;10.37;nan;99703.19;5057074;28;20174;-73
2021/10/22 04:26:23;;;;;;;5.43;1.57;;;;;;;10.47;nan;99704.28;5056051;28;20264;-74
2021/10/22 04:28:49;;;;;;;5.53;1.40;;;;;;;10.78;nan;99737.63;5056682;28;20180;-73
2021/10/22 04:31:14;;;;;;;5.47;1.60;;;;;;;10.56;nan;99704.47;5055214;28;20711;-73
2021/10/22 04:33:39;;;;;;;5.23;1.40;;;;;;;10.57;nan;99705.34;5056290;28;20176;-72
2021/10/22 04:36:08;;;;;;;7.10;1.80;;;;;;;10.32;nan;99692.84;5055226;28;20179;-74
2021/10/22 04:41:17;;;;;;;11.37;2.00;;;;;;;10.80;nan;99709.91;5056409;28;20227;-74
2021/10/22 04:43:42;;;;;;;7.63;1.77;;;;;;;10.66;nan;99696.66;5054857;28;20180;-73
2021/10/22 04:46:07;;;;;;;7.53;1.63;;;;;;;10.63;nan;99715.56;5054865;28;20224;-73
2021/10/22 04:48:33;;;;;;;8.40;1.70;;;;;;;10.51;nan;99716.44;5055167;28;20172;-74
2021/10/22 04:50:58;;;;;;;4.33;1.13;;;;;;;10.29;nan;99706.41;5055141;28;20311;-73
2021/10/22 04:53:26;;;;;;;10.30;1.60;;;;;;;10.47;nan;99698.94;5056451;28;20198;-73
2021/10/22 04:55:52;;;;;;;12.00;1.90;;;;;;;10.49;nan;99700.53;5038522;28;20203;-73
2021/10/22 04:58:17;;;;;;;8.30;1.40;;;;;;;10.29;nan;99723.25;5055853;28;20207;-73
2021/10/22 05:00:42;;;;;;;5.10;1.40;;;;;;;10.28;nan;99710.03;5054738;28;20172;-71
2021/10/22 05:03:07;;;;;;;6.67;1.50;;;;;;;10.65;nan;99692.31;5055921;28;20176;-73
2021/10/22 05:05:33;;;;;;;12.07;1.50;;;;;;;10.75;nan;99693.34;5054870;28;20654;-72
2021/10/22 05:07:58;;;;;;;6.77;1.53;;;;;;;10.47;nan;99722.97;5055592;28;20180;-72
2021/10/22 05:10:24;;;;;;;6.00;1.33;;;;;;;10.41;nan;99686.91;5055704;28;20286;-72
2021/10/22 05:12:49;;;;;;;11.33;1.73;;;;;;;10.41;nan;99694.06;5056162;28;20186;-72
2021/10/22 05:15:14;;;;;;;6.70;1.67;;;;;;;10.53;nan;99695.84;5055722;28;20190;-74
2021/10/22 05:17:40;;;;;;;8.13;2.07;;;;;;;10.30;nan;99690.31;5054858;28;20254;-73
2021/10/22 05:20:08;;;;;;;8.90;1.93;;;;;;;10.62;nan;99724.53;5055307;28;20652;-71
2021/10/22 05:22:36;;;;;;;12.97;2.00;;;;;;;10.46;nan;99730.09;5057555;28;20195;-72
2021/10/22 05:25:03;;;;;;;7.63;1.53;;;;;;;10.37;nan;99665.84;5063064;28;20266;-72
2021/10/22 05:27:28;;;;;;;6.03;1.60;;;;;;;10.34;nan;99690.94;5062154;28;20207;-72
2021/10/22 05:29:53;;;;;;;5.83;1.87;;;;;;;10.52;nan;99691.47;5063320;28;20241;-72
2021/10/22 05:32:18;;;;;;;8.63;1.53;;;;;;;10.38;nan;99679.09;5063176;28;20216;-72
2021/10/22 05:34:44;;;;;;;6.80;2.03;;;;;;;10.27;nan;99693.19;5057652;28;20180;-72
2021/10/22 05:37:10;;;;;;;9.53;2.00;;;;;;;10.46;nan;99691.91;5037274;28;20676;-71
2021/10/22 05:39:35;;;;;;;12.10;2.00;;;;;;;10.29;nan;99674.41;5055120;28;20175;-72
2021/10/22 05:42:00;;;;;;;13.83;2.13;;;;;;;10.30;nan;99681.44;5077139;22;20224;-68
2021/10/22 05:44:26;;;;;;;8.00;1.93;;;;;;;10.32;nan;99667.03;5033946;28;20597;-68
2021/10/22 05:46:53;;;;;;;8.03;2.00;;;;;;;10.38;nan;99688.91;5017378;28;20184;-68
2021/10/22 05:49:19;;;;;;;7.37;1.87;;;;;;;10.17;nan;99686.75;5017399;28;20184;-67
2021/10/22 05:51:45;;;;;;;13.03;2.30;;;;;;;10.39;nan;99685.28;5033943;28;20279;-68
2021/10/22 05:54:10;;;;;;;3.43;1.60;;;;;;;10.42;nan;99677.09;5033860;28;20210;-67
2021/10/22 05:56:35;;;;;;;7.97;1.50;;;;;;;10.36;nan;99661.47;5035052;28;20176;-69
2021/10/22 05:59:00;;;;;;;7.77;1.77;;;;;;;10.70;nan;99673.28;5034844;28;20169;-68
2021/10/22 06:01:26;;;;;;;5.87;1.77;;;;;;;10.32;nan;99679.53;5034665;28;20199;-68
2021/10/22 06:03:51;;;;;;;8.23;1.57;;;;;;;10.47;nan;99682.94;5034677;28;20179;-68
2021/10/22 06:06:17;;;;;;;7.00;2.13;;;;;;;10.64;nan;99667.44;5034542;28;20608;-68
2021/10/22 06:08:42;;;;;;;5.33;1.60;;;;;;;10.84;nan;99682.03;5034405;28;20180;-67
2021/10/22 06:11:11;;;;;;;9.47;2.53;;;;;;;10.80;nan;99666.34;5034541;28;20211;-68
2021/10/22 06:13:41;;;;;;;6.23;1.60;;;;;;;10.74;nan;99685.44;5017227;28;20183;-68
2021/10/22 06:16:07;;;;;;;6.57;2.00;;;;;;;10.92;nan;99682.31;5033586;28;20183;-68
2021/10/22 06:18:34;;;;;;;12.33;1.87;;;;;;;10.77;nan;99654.03;5033491;28;20262;-68
2021/10/22 06:21:09;;;;;;;9.17;1.57;;;;;;;10.55;nan;99654.75;5032780;28;20180;-67
2021/10/22 06:26:18;;;;;;;13.47;2.23;;;;;;;10.73;nan;99633.03;5034656;28;20164;-68
2021/10/22 06:28:43;;;;;;;11.07;1.60;;;;;;;10.72;nan;99656.19;5035254;28;20180;-68
2021/10/22 06:31:09;;;;;;;8.00;1.70;;;;;;;10.90;nan;99649.53;5034632;28;20678;-68
2021/10/22 06:33:34;;;;;;;9.63;1.67;;;;;;;10.72;nan;99658.03;5034571;28;20181;-68
2021/10/22 06:36:00;;;;;;;9.43;2.00;;;;;;;10.64;nan;99642.56;5035082;28;20176;-68
2021/10/22 06:38:25;;;;;;;15.07;2.50;;;;;;;10.59;nan;99666.06;5034373;28;20527;-67
2021/10/22 06:40:54;;;;;;;8.40;2.37;;;;;;;10.76;nan;99646.16;5032921;28;20681;-67
2021/10/22 06:43:22;;;;;;;11.00;2.33;;;;;;;11.10;nan;99665.91;5032991;28;20180;-67
2021/10/22 06:45:48;;;;;;;9.57;1.70;;;;;;;11.07;nan;99650.97;5032753;28;20189;-67
2021/10/22 06:48:14;;;;;;;8.10;1.70;;;;;;;10.77;nan;99631.84;5032988;28;20274;-67
2021/10/22 06:50:39;;;;;;;10.57;1.67;;;;;;;10.70;nan;99642.13;5034004;28;20286;-68
2021/10/22 06:53:05;;;;;;;7.37;1.67;;;;;;;10.96;nan;99625.06;5032668;28;20196;-68
2021/10/22 06:55:30;;;;;;;9.77;2.37;;;;;;;11.03;nan;99643.31;5033641;28;20250;-68
2021/10/22 06:57:55;;;;;;;7.93;1.57;;;;;;;10.95;nan;99630.53;5033283;28;20184;-68
2021/10/22 07:00:21;;;;;;;9.23;1.90;;;;;;;10.90;nan;99619.34;5034108;28;20179;-68
2021/10/22 07:02:51;;;;;;;8.63;2.33;;;;;;;11.14;nan;99632.66;5032632;28;20200;-68
2021/10/22 07:08:08;;;;;;;7.20;1.97;;;;;;;10.85;nan;99627.69;5026253;28;20196;-68
2021/10/22 07:10:33;;;;;;;5.13;1.90;;;;;;;11.19;nan;99633.22;5032687;28;20310;-68
2021/10/22 07:13:00;;;;;;;4.43;1.60;;;;;;;10.87;nan;99612.41;5033894;28;20211;-69
2021/10/22 07:15:26;;;;;;;8.27;1.63;;;;;;;10.98;nan;99643.63;5032409;28;20293;-68
2021/10/22 07:17:52;;;;;;;6.60;1.83;;;;;;;11.13;nan;99628.28;5032478;28;20181;-69
2021/10/22 07:20:18;;;;;;;7.90;2.30;;;;;;;11.10;nan;99608.00;5032567;28;20188;-69
2021/10/22 07:22:50;;;;;;;9.13;1.93;;;;;;;10.65;nan;99628.25;5033415;28;20207;-69
2021/10/22 07:25:15;;;;;;;8.73;2.03;;;;;;;10.78;nan;99574.84;5032312;28;20211;-68
2021/10/22 07:27:41;;;;;;;9.63;2.67;;;;;;;10.88;nan;99592.75;5033695;28;20516;-68
2021/10/22 07:30:07;;;;;;;10.10;2.57;;;;;;;10.88;nan;99598.09;5033231;28;20176;-68
2021/10/22 07:32:32;;;;;;;8.07;1.97;;;;;;;10.23;nan;99578.84;5031982;28;20282;-68
2021/10/22 07:34:58;;;;;;;7.63;1.67;;;;;;;10.21;nan;99605.63;5033448;28;20563;-68
2021/10/22 07:37:23;;;;;;;17.73;2.30;;;;;;;10.52;nan;99595.44;5032317;28;20183;-68
2021/10/22 07:39:49;;;;;;;7.03;1.93;;;;;;;10.23;nan;99579.69;5034221;28;20558;-67
2021/10/22 07:42:14;;;;;;;7.17;2.13;;;;;;;10.22;nan;99590.47;5033769;28;20219;-68
2021/10/22 07:44:39;;;;;;;6.70;2.10;;;;;;;10.63;nan;99592.84;5035246;28;20186;-68
2021/10/22 07:47:05;;;;;;;8.50;1.70;;;;;;;10.66;nan;99576.59;5035462;28;20182;-67
2021/10/22 07:49:30;;;;;;;6.63;1.73;;;;;;;10.50;nan;99582.19;5034907;28;20180;-68
2021/10/22 07:51:55;;;;;;;12.60;1.83;;;;;;;10.37;nan;99576.03;5034940;28;20208;-68
2021/10/22 07:54:21;;;;;;;9.93;1.90;;;;;;;10.49;nan;99574.31;5031644;28;20565;-68
2021/10/22 07:56:46;;;;;;;7.73;1.77;;;;;;;10.54;nan;99598.84;5032856;28;20176;-68
2021/10/22 07:59:11;;;;;;;10.27;2.00;;;;;;;10.98;nan;99563.53;5033074;28;20207;-69
2021/10/22 08:01:37;;;;;;;9.97;2.00;;;;;;;10.72;nan;99578.81;5032996;28;20188;-68
2021/10/22 08:04:04;;;;;;;11.10;1.73;;;;;;;10.69;nan;99591.53;5032824;28;20168;-68
2021/10/22 08:06:30;;;;;;;9.80;1.97;;;;;;;10.88;nan;99574.06;5032915;28;20215;-69
2021/10/22 08:08:56;;;;;;;10.93;1.93;;;;;;;11.00;nan;99585.66;5031795;28;20172;-68
2021/10/22 08:11:22;;;;;;;9.27;2.17;;;;;;;10.83;nan;99543.34;5032709;28;20574;-68
2021/10/22 08:13:48;;;;;;;8.37;1.83;;;;;;;11.40;nan;99570.13;5031855;28;20184;-68
2021/10/22 08:16:13;;;;;;;9.37;2.13;;;;;;;11.22;nan;99596.44;5032717;28;20191;-68
2021/10/22 08:18:38;;;;;;;4.47;1.77;;;;;;;11.19;nan;99585.13;5031717;28;20180;-69
2021/10/22 08:21:22;;;;;;;10.40;2.20;;;;;;;11.24;nan;99556.25;5031677;28;20180;-68
2021/10/22 08:23:48;;;;;;;14.53;2.67;;;;;;;11.15;nan;99579.19;5032895;28;20562;-68
2021/10/22 08:26:15;;;;;;;9.47;2.03;;;;;;;11.78;nan;99575.25;5033173;28;20187;-68
2021/10/22 08:28:40;;;;;;;10.60;1.80;;;;;;;11.03;nan;99573.88;5031950;28;20184;-68
2021/10/22 08:31:07;;;;;;;8.53;2.07;;;;;;;11.25;nan;99606.88;5032502;28;20227;-68
2021/10/22 08:33:32;;;;;;;13.53;2.53;;;;;;;11.68;nan;99576.06;5032978;28;20283;-68
2021/10/22 08:35:59;;;;;;;10.10;1.90;;;;;;;11.41;nan;99555.81;5031735;28;20646;-68
2021/10/22 08:38:25;;;;;;;10.40;2.33;;;;;;;11.26;nan;99554.31;5033070;28;20203;-68
2021/10/22 08:40:53;;;;;;;12.67;2.77;;;;;;;11.68;nan;99608.97;5031430;28;20630;-69
2021/10/22 08:43:19;;;;;;;7.57;2.10;;;;;;;11.54;nan;99540.56;5031943;28;20186;-69
2021/10/22 08:45:45;;;;;;;10.10;2.10;;;;;;;11.73;nan;99561.34;5034146;28;20184;-68
2021/10/22 08:48:11;;;;;;;15.43;2.73;;;;;;;11.85;nan;99568.44;5034969;28;20192;-68
2021/10/22 08:50:37;;;;;;;9.70;2.03;;;;;;;11.40;nan;99559.44;5037306;28;20201;-69
2021/10/22 08:53:02;;;;;;;7.30;1.97;;;;;;;11.43;nan;99545.00;5036131;28;20196;-69
2021/10/22 08:55:28;;;;;;;10.50;2.13;;;;;;;11.81;nan;99568.81;5041491;28;20176;-68
2021/10/22 08:57:53;;;;;;;11.77;2.53;;;;;;;11.32;nan;99537.81;5036088;28;20173;-69
2021/10/22 09:00:20;;;;;;;11.40;3.03;;;;;;;11.40;nan;99540.75;5036195;28;20181;-69
2021/10/22 09:02:48;;;;;;;6.70;2.00;;;;;;;11.45;nan;99559.94;5018638;28;20204;-68
2021/10/22 09:05:23;;;;;;;7.63;2.00;;;;;;;11.72;nan;99561.47;5036687;28;20176;-68
2021/10/22 09:07:53;;;;;;;17.53;2.33;;;;;;;11.76;nan;99533.53;5034885;28;20206;-68
2021/10/22 09:10:20;;;;;;;7.03;2.17;;;;;;;11.36;nan;99546.44;5038269;28;20189;-69
2021/10/22 09:12:51;;;;;;;7.60;1.60;;;;;;;12.10;nan;99578.06;5040664;28;20232;-69
2021/10/22 09:15:19;;;;;;;10.33;2.10;;;;;;;11.80;nan;99529.69;5038129;28;20161;-69
2021/10/22 09:17:45;;;;;;;10.37;1.70;;;;;;;11.55;nan;99536.91;5035862;28;20184;-69
2021/10/22 09:20:12;;;;;;;11.73;2.43;;;;;;;11.63;nan;99530.13;5035707;28;20179;-69
2021/10/22 09:22:39;;;;;;;11.13;2.23;;;;;;;11.90;nan;99541.38;5034347;28;20285;-69
2021/10/22 09:25:10;;;;;;;9.80;2.10;;;;;;;12.09;nan;99557.66;5035614;28;20190;-69
2021/10/22 09:28:06;;;;;;;5.10;1.63;;;;;;;12.19;nan;99553.25;5036019;28;20660;-68
2021/10/22 09:30:37;;;;;;;10.97;1.80;;;;;;;11.80;nan;99538.53;5036065;28;20196;-68
2021/10/22 09:33:17;;;;;;;7.27;1.67;;;;;;;12.12;nan;99551.22;5034542;28;20704;-68
2021/10/22 09:35:50;;;;;;;7.23;1.70;;;;;;;12.43;nan;99558.50;5034812;28;20156;-68
2021/10/22 09:38:24;;;;;;;10.97;2.37;;;;;;;11.99;nan;99526.41;5034783;28;20204;-68
2021/10/22 09:40:54;;;;;;;8.17;2.07;;;;;;;11.76;nan;99520.16;5034833;28;20218;-69
2021/10/22 09:43:24;;;;;;;9.57;1.90;;;;;;;12.51;nan;99557.88;5035903;28;20192;-70
2021/10/22 09:46:07;;;;;;;10.67;2.37;;;;;;;12.50;nan;99535.59;5018643;28;20161;-69
2021/10/22 09:48:33;;;;;;;11.43;1.87;;;;;;;12.37;nan;99509.97;5034499;28;20167;-68
2021/10/22 09:51:23;;;;;;;11.13;1.63;;;;;;;12.66;nan;99520.97;5036052;28;20211;-69
2021/10/22 09:53:49;;;;;;;8.77;1.90;;;;;;;12.44;nan;99544.13;5033936;28;20594;-68
2021/10/22 09:56:28;;;;;;;9.80;2.10;;;;;;;12.56;nan;99573.53;5033096;28;20198;-69
2021/10/22 09:59:08;;;;;;;7.30;2.00;;;;;;;12.96;nan;99552.38;5017119;28;20179;-68
2021/10/22 10:01:33;;;;;;;10.93;2.13;;;;;;;12.78;nan;99517.28;5034106;28;20704;-68
2021/10/22 10:04:00;;;;;;;8.93;1.80;;;;;;;12.74;nan;99514.00;5034676;28;20237;-68
2021/10/22 10:06:26;;;;;;;7.37;1.80;;;;;;;12.77;nan;99491.50;5033874;28;20186;-69
2021/10/22 10:08:51;;;;;;;7.63;2.67;;;;;;;12.45;nan;99500.34;5017015;28;20176;-68
2021/10/22 10:11:17;;;;;;;8.37;3.00;;;;;;;12.48;nan;99509.94;5034542;28;20207;-69
2021/10/22 10:13:42;;;;;;;12.33;1.83;;;;;;;12.61;nan;99472.31;5034703;28;20186;-68
2021/10/22 10:16:09;;;;;;;7.23;2.00;;;;;;;13.26;nan;99504.31;5033844;28;20206;-69
2021/10/22 10:18:43;;;;;;;13.93;2.37;;;;;;;13.52;nan;99533.41;5034874;28;20293;-68
2021/10/22 10:21:09;;;;;;;6.27;1.60;;;;;;;13.43;nan;99495.69;5034548;28;20155;-68
2021/10/22 10:23:38;;;;;;;9.17;1.90;;;;;;;13.59;nan;99505.09;5033361;28;20266;-67
2021/10/22 10:26:30;;;;;;;7.83;1.90;;;;;;;13.41;nan;99494.13;5033591;28;20589;-68
2021/10/22 10:28:57;;;;;;;9.03;1.70;;;;;;;13.06;nan;99486.38;5033416;28;20168;-68
2021/10/22 10:31:34;;;;;;;11.60;1.90;;;;;;;12.88;nan;99487.91;5034177;28;20223;-69
2021/10/22 10:34:00;;;;;;;9.50;1.97;;;;;;;12.16;nan;99470.59;5033121;28;20183;-68
2021/10/22 10:36:45;;;;;;;8.43;2.30;;;;;;;12.12;nan;99489.69;5033114;28;20260;-69
2021/10/22 10:39:11;;;;;;;9.87;1.73;;;;;;;11.74;nan;99460.63;5032999;28;20256;-69
2021/10/22 10:41:37;;;;;;;9.87;1.70;;;;;;;11.64;nan;99462.34;5033951;28;20286;-68
2021/10/22 10:44:30;;;;;;;8.80;2.03;;;;;;;12.28;nan;99463.41;5033847;28;20202;-69
2021/10/22 10:46:56;;;;;;;5.83;1.37;;;;;;;12.05;nan;99462.59;5033151;28;20503;-69
2021/10/22 10:49:50;;;;;;;9.47;1.80;;;;;;;11.79;nan;99474.50;5032829;28;20189;-69
2021/10/22 10:52:34;;;;;;;9.17;1.83;;;;;;;11.74;nan;99506.06;5035997;28;20710;-69
2021/10/22 10:55:31;;;;;;;9.17;2.00;;;;;;;11.52;nan;99480.16;5038016;28;20182;-69
2021/10/22 10:58:08;;;;;;;12.07;2.47;;;;;;;11.48;nan;99498.25;5039394;28;20517;-68
2021/10/22 11:00:47;;;;;;;9.10;2.10;;;;;;;11.27;nan;99507.94;5034461;28;20172;-69
2021/10/22 11:03:15;;;;;;;11.10;2.17;;;;;;;11.25;nan;99493.84;5035385;28;20195;-69
2021/10/22 11:05:44;;;;;;;11.27;1.73;;;;;;;11.59;nan;99502.78;5036444;28;20241;-69
2021/10/22 11:08:28;;;;;;;9.73;2.20;;;;;;;11.40;nan;99510.53;5037667;28;20176;-69
2021/10/22 11:13:41;;;;;;;16.03;2.63;;;;;;;11.29;nan;99516.69;5035038;28;20174;-69
2021/10/22 11:16:10;;;;;;;8.63;2.17;;;;;;;11.15;nan;99547.13;5034919;28;20218;-68
2021/10/22 11:18:39;;;;;;;8.67;2.20;;;;;;;11.16;nan;99556.84;5033308;28;20211;-69
2021/10/22 11:21:04;;;;;;;6.63;1.70;;;;;;;10.90;nan;99509.88;5035090;28;20713;-69
2021/10/22 11:23:29;;;;;;;8.53;1.50;;;;;;;11.16;nan;99543.50;5034706;28;20223;-68
2021/10/22 11:25:58;;;;;;;11.33;2.20;;;;;;;11.54;nan;99535.22;5033804;28;20180;-67
2021/10/22 11:28:30;;;;;;;9.57;2.70;;;;;;;20.44;nan;99677.78;5018234;28;20179;-69
2021/10/22 11:30:56;;;;;;;11.47;2.13;;;;;;;27.20;nan;99518.50;5034010;28;20203;-69
2021/10/22 11:33:27;;;;;;;478.87;35.60;;;;;;;-142.99;100.00;60561.41;5032866;28;20234;-69
2021/10/22 11:35:54;;;;;;;11.70;2.60;;;;;;;18.51;nan;99522.09;5036467;28;20168;-68
2021/10/22 11:38:26;;;;;;;14.13;2.67;;;;;;;13.05;nan;99624.81;5033629;28;20175;-68
2021/10/22 11:40:53;;;;;;;8.23;2.07;;;;;;;12.86;nan;99832.63;5033366;28;20168;-68
2021/10/22 11:43:19;;;;;;;13.83;2.03;;;;;;;13.44;nan;99843.16;5074876;22;20219;-76
2021/10/22 11:45:50;;;;;;;11.30;2.70;;;;;;;13.76;nan;99791.44;5051974;28;20195;-75
2021/10/22 11:48:30;;;;;;;12.23;2.30;;;;;;;14.11;nan;99619.44;5052292;28;20160;-74
2021/10/22 11:50:56;;;;;;;13.03;1.70;;;;;;;14.35;nan;99547.53;5035861;28;20301;-76
2021/10/22 11:53:25;;;;;;;14.37;2.40;;;;;;;9.50;nan;99514.69;5052124;28;20207;-75
2021/10/22 11:55:59;;;;;;;9.53;2.10;;;;;;;9.22;nan;99568.97;5052116;28;20184;-75
2021/10/22 11:58:25;;;;;;;8.37;1.97;;;;;;;9.29;nan;99579.13;5053089;28;20156;-78
2021/10/22 12:00:52;;;;;;;4.00;1.57;;;;;;;9.24;nan;99570.56;5052403;28;20181;-75